sensor_id;sensor_type;location;lat;lon;timestamp;P1;durP1;ratioP1;P2;durP2;ratioP2
71838;SDS011;59687;37.520;15.068;2022-10-17T00:01:38;20.53;;;11.47;;
71838;SDS011;59687;37.520;15.068;2022-10-17T00:04:05;19.17;;;11.50;;
71838;SDS011;59687;37.520;15.068;2022-10-17T00:06:31;21.33;;;11.82;;
71838;SDS011;59687;37.520;15.068;2022-10-17T00:08:58;21.08;;;11.88;;
71838;SDS011;59687;37.520;15.068;2022-10-17T00:11:25;18.60;;;10.30;;
71838;SDS011;59687;37.520;15.068;2022-10-17T00:13:54;19.37;;;11.43;;
71838;SDS011;59687;37.520;15.068;2022-10-17T00:16:25;19.95;;;11.55;;
71838;SDS011;59687;37.520;15.068;2022-10-17T00:18:54;18.20;;;11.80;;
71838;SDS011;59687;37.520;15.068;2022-10-17T00:21:21;18.52;;;11.13;;
71838;SDS011;59687;37.520;15.068;2022-10-17T00:23:49;20.42;;;11.63;;
71838;SDS011;59687;37.520;15.068;2022-10-17T00:26:17;17.97;;;11.27;;
71838;SDS011;59687;37.520;15.068;2022-10-17T00:28:45;20.27;;;11.30;;
71838;SDS011;59687;37.520;15.068;2022-10-17T00:31:13;20.67;;;11.80;;
71838;SDS011;59687;37.520;15.068;2022-10-17T00:33:42;20.15;;;11.25;;
71838;SDS011;59687;37.520;15.068;2022-10-17T00:36:10;20.45;;;11.80;;
71838;SDS011;59687;37.520;15.068;2022-10-17T00:38:43;20.37;;;12.13;;
71838;SDS011;59687;37.520;15.068;2022-10-17T00:41:13;21.33;;;11.88;;
71838;SDS011;59687;37.520;15.068;2022-10-17T00:46:44;19.77;;;11.75;;
71838;SDS011;59687;37.520;15.068;2022-10-17T00:49:11;21.88;;;12.15;;
71838;SDS011;59687;37.520;15.068;2022-10-17T00:51:55;19.80;;;11.93;;
71838;SDS011;59687;37.520;15.068;2022-10-17T00:54:26;22.70;;;13.07;;
71838;SDS011;59687;37.520;15.068;2022-10-17T00:56:58;21.50;;;11.77;;
71838;SDS011;59687;37.520;15.068;2022-10-17T00:59:27;19.55;;;12.15;;
71838;SDS011;59687;37.520;15.068;2022-10-17T01:01:56;20.08;;;11.98;;
71838;SDS011;59687;37.520;15.068;2022-10-17T01:04:29;18.87;;;11.57;;
71838;SDS011;59687;37.520;15.068;2022-10-17T01:06:57;19.80;;;12.45;;
71838;SDS011;59687;37.520;15.068;2022-10-17T01:09:24;20.45;;;12.65;;
71838;SDS011;59687;37.520;15.068;2022-10-17T01:11:58;20.30;;;12.07;;
71838;SDS011;59687;37.520;15.068;2022-10-17T01:25:16;19.98;;;13.10;;
71838;SDS011;59687;37.520;15.068;2022-10-17T01:28:00;20.50;;;12.93;;
71838;SDS011;59687;37.520;15.068;2022-10-17T01:33:16;22.52;;;13.00;;
71838;SDS011;59687;37.520;15.068;2022-10-17T01:42:06;21.92;;;13.13;;
71838;SDS011;59687;37.520;15.068;2022-10-17T01:44:38;20.50;;;13.03;;
71838;SDS011;59687;37.520;15.068;2022-10-17T01:47:12;22.58;;;13.25;;
71838;SDS011;59687;37.520;15.068;2022-10-17T01:49:44;23.23;;;13.32;;
71838;SDS011;59687;37.520;15.068;2022-10-17T01:52:19;20.65;;;13.18;;
71838;SDS011;59687;37.520;15.068;2022-10-17T01:54:51;22.42;;;13.38;;
71838;SDS011;59687;37.520;15.068;2022-10-17T01:59:55;20.27;;;13.32;;
71838;SDS011;59687;37.520;15.068;2022-10-17T02:02:23;22.08;;;13.38;;
71838;SDS011;59687;37.520;15.068;2022-10-17T02:04:51;21.83;;;11.75;;
71838;SDS011;59687;37.520;15.068;2022-10-17T02:07:22;19.13;;;11.93;;
71838;SDS011;59687;37.520;15.068;2022-10-17T02:09:49;17.87;;;11.23;;
71838;SDS011;59687;37.520;15.068;2022-10-17T02:23:05;22.47;;;12.13;;
71838;SDS011;59687;37.520;15.068;2022-10-17T02:25:52;20.35;;;11.43;;
71838;SDS011;59687;37.520;15.068;2022-10-17T02:28:37;20.33;;;11.93;;
71838;SDS011;59687;37.520;15.068;2022-10-17T02:31:14;20.20;;;11.93;;
71838;SDS011;59687;37.520;15.068;2022-10-17T02:33:54;21.48;;;11.77;;
71838;SDS011;59687;37.520;15.068;2022-10-17T02:36:25;20.07;;;11.67;;
71838;SDS011;59687;37.520;15.068;2022-10-17T02:38:57;19.00;;;11.40;;
71838;SDS011;59687;37.520;15.068;2022-10-17T02:41:27;20.88;;;12.13;;
71838;SDS011;59687;37.520;15.068;2022-10-17T02:43:55;17.95;;;11.77;;
71838;SDS011;59687;37.520;15.068;2022-10-17T02:46:26;18.58;;;10.70;;
71838;SDS011;59687;37.520;15.068;2022-10-17T02:52:01;22.80;;;12.07;;
71838;SDS011;59687;37.520;15.068;2022-10-17T02:57:35;19.52;;;11.23;;
71838;SDS011;59687;37.520;15.068;2022-10-17T03:00:06;22.67;;;12.55;;
71838;SDS011;59687;37.520;15.068;2022-10-17T03:02:46;20.50;;;11.77;;
71838;SDS011;59687;37.520;15.068;2022-10-17T03:05:16;18.98;;;12.13;;
71838;SDS011;59687;37.520;15.068;2022-10-17T03:07:48;22.83;;;12.25;;
71838;SDS011;59687;37.520;15.068;2022-10-17T03:10:15;20.88;;;12.85;;
71838;SDS011;59687;37.520;15.068;2022-10-17T03:12:42;20.60;;;11.38;;
71838;SDS011;59687;37.520;15.068;2022-10-17T03:15:10;18.33;;;11.07;;
71838;SDS011;59687;37.520;15.068;2022-10-17T03:17:39;21.85;;;12.15;;
71838;SDS011;59687;37.520;15.068;2022-10-17T03:20:07;18.80;;;11.63;;
71838;SDS011;59687;37.520;15.068;2022-10-17T03:22:35;20.08;;;11.75;;
71838;SDS011;59687;37.520;15.068;2022-10-17T03:25:03;19.73;;;12.07;;
71838;SDS011;59687;37.520;15.068;2022-10-17T03:27:33;22.27;;;13.07;;
71838;SDS011;59687;37.520;15.068;2022-10-17T03:30:01;22.08;;;12.88;;
71838;SDS011;59687;37.520;15.068;2022-10-17T03:32:31;21.67;;;12.23;;
71838;SDS011;59687;37.520;15.068;2022-10-17T03:35:00;21.92;;;12.35;;
71838;SDS011;59687;37.520;15.068;2022-10-17T03:37:28;21.45;;;12.98;;
71838;SDS011;59687;37.520;15.068;2022-10-17T03:39:57;23.60;;;13.23;;
71838;SDS011;59687;37.520;15.068;2022-10-17T03:42:24;23.85;;;12.48;;
71838;SDS011;59687;37.520;15.068;2022-10-17T03:44:51;26.13;;;13.82;;
71838;SDS011;59687;37.520;15.068;2022-10-17T03:47:18;23.08;;;12.88;;
71838;SDS011;59687;37.520;15.068;2022-10-17T03:49:45;25.67;;;13.43;;
71838;SDS011;59687;37.520;15.068;2022-10-17T03:52:13;23.87;;;13.70;;
71838;SDS011;59687;37.520;15.068;2022-10-17T03:54:41;25.75;;;14.18;;
71838;SDS011;59687;37.520;15.068;2022-10-17T03:57:08;23.48;;;13.05;;
71838;SDS011;59687;37.520;15.068;2022-10-17T03:59:37;24.60;;;14.55;;
71838;SDS011;59687;37.520;15.068;2022-10-17T04:02:10;23.98;;;13.63;;
71838;SDS011;59687;37.520;15.068;2022-10-17T04:04:37;22.70;;;13.27;;
71838;SDS011;59687;37.520;15.068;2022-10-17T04:07:07;23.83;;;13.75;;
71838;SDS011;59687;37.520;15.068;2022-10-17T04:09:38;23.13;;;13.38;;
71838;SDS011;59687;37.520;15.068;2022-10-17T04:12:09;25.02;;;14.07;;
71838;SDS011;59687;37.520;15.068;2022-10-17T04:14:36;23.02;;;14.02;;
71838;SDS011;59687;37.520;15.068;2022-10-17T04:17:04;23.67;;;13.50;;
71838;SDS011;59687;37.520;15.068;2022-10-17T04:19:32;24.60;;;14.07;;
71838;SDS011;59687;37.520;15.068;2022-10-17T04:22:00;24.05;;;14.50;;
71838;SDS011;59687;37.520;15.068;2022-10-17T04:24:33;29.38;;;14.93;;
71838;SDS011;59687;37.520;15.068;2022-10-17T04:27:08;27.40;;;14.68;;
71838;SDS011;59687;37.520;15.068;2022-10-17T04:29:39;24.87;;;14.80;;
71838;SDS011;59687;37.520;15.068;2022-10-17T04:32:21;29.83;;;15.02;;
71838;SDS011;59687;37.520;15.068;2022-10-17T04:35:01;23.73;;;15.65;;
71838;SDS011;59687;37.520;15.068;2022-10-17T04:37:28;26.05;;;15.55;;
71838;SDS011;59687;37.520;15.068;2022-10-17T04:39:57;22.88;;;14.75;;
71838;SDS011;59687;37.520;15.068;2022-10-17T04:42:27;23.80;;;14.17;;
71838;SDS011;59687;37.520;15.068;2022-10-17T04:44:55;24.63;;;14.93;;
71838;SDS011;59687;37.520;15.068;2022-10-17T04:47:24;27.45;;;15.85;;
71838;SDS011;59687;37.520;15.068;2022-10-17T04:49:51;23.00;;;13.55;;
71838;SDS011;59687;37.520;15.068;2022-10-17T04:52:20;24.95;;;14.20;;
71838;SDS011;59687;37.520;15.068;2022-10-17T04:54:48;25.20;;;14.27;;
71838;SDS011;59687;37.520;15.068;2022-10-17T04:57:16;20.70;;;13.50;;
71838;SDS011;59687;37.520;15.068;2022-10-17T05:00:01;23.65;;;13.27;;
71838;SDS011;59687;37.520;15.068;2022-10-17T05:03:04;22.80;;;12.48;;
71838;SDS011;59687;37.520;15.068;2022-10-17T05:05:31;24.25;;;13.13;;
71838;SDS011;59687;37.520;15.068;2022-10-17T05:08:03;24.00;;;12.07;;
71838;SDS011;59687;37.520;15.068;2022-10-17T05:10:39;20.38;;;12.18;;
71838;SDS011;59687;37.520;15.068;2022-10-17T05:13:08;19.67;;;12.20;;
71838;SDS011;59687;37.520;15.068;2022-10-17T05:15:36;19.55;;;11.73;;
71838;SDS011;59687;37.520;15.068;2022-10-17T05:18:03;22.45;;;11.95;;
71838;SDS011;59687;37.520;15.068;2022-10-17T05:20:31;19.47;;;11.93;;
71838;SDS011;59687;37.520;15.068;2022-10-17T05:22:59;20.20;;;11.50;;
71838;SDS011;59687;37.520;15.068;2022-10-17T05:25:32;22.92;;;12.00;;
71838;SDS011;59687;37.520;15.068;2022-10-17T05:28:00;20.08;;;11.77;;
71838;SDS011;59687;37.520;15.068;2022-10-17T05:30:28;19.73;;;11.07;;
71838;SDS011;59687;37.520;15.068;2022-10-17T05:33:01;20.37;;;11.87;;
71838;SDS011;59687;37.520;15.068;2022-10-17T05:35:30;23.85;;;12.75;;
71838;SDS011;59687;37.520;15.068;2022-10-17T05:37:57;20.02;;;11.88;;
71838;SDS011;59687;37.520;15.068;2022-10-17T05:40:24;19.10;;;11.50;;
71838;SDS011;59687;37.520;15.068;2022-10-17T05:42:52;19.83;;;11.60;;
71838;SDS011;59687;37.520;15.068;2022-10-17T05:45:21;28.37;;;16.57;;
71838;SDS011;59687;37.520;15.068;2022-10-17T05:47:49;22.52;;;12.00;;
71838;SDS011;59687;37.520;15.068;2022-10-17T05:50:16;18.00;;;10.13;;
71838;SDS011;59687;37.520;15.068;2022-10-17T05:53:05;16.30;;;9.82;;
71838;SDS011;59687;37.520;15.068;2022-10-17T05:55:38;16.50;;;10.93;;
71838;SDS011;59687;37.520;15.068;2022-10-17T05:58:05;17.57;;;10.23;;
71838;SDS011;59687;37.520;15.068;2022-10-17T06:00:37;15.63;;;10.15;;
71838;SDS011;59687;37.520;15.068;2022-10-17T06:03:10;16.10;;;10.18;;
71838;SDS011;59687;37.520;15.068;2022-10-17T06:05:39;17.88;;;10.02;;
71838;SDS011;59687;37.520;15.068;2022-10-17T06:08:06;15.70;;;9.13;;
71838;SDS011;59687;37.520;15.068;2022-10-17T06:10:35;21.57;;;10.30;;
71838;SDS011;59687;37.520;15.068;2022-10-17T06:13:02;13.68;;;9.23;;
71838;SDS011;59687;37.520;15.068;2022-10-17T06:15:29;15.57;;;9.20;;
71838;SDS011;59687;37.520;15.068;2022-10-17T06:18:01;15.25;;;9.57;;
71838;SDS011;59687;37.520;15.068;2022-10-17T06:20:29;16.52;;;9.57;;
71838;SDS011;59687;37.520;15.068;2022-10-17T06:22:56;14.27;;;8.70;;
71838;SDS011;59687;37.520;15.068;2022-10-17T06:25:45;14.50;;;9.80;;
71838;SDS011;59687;37.520;15.068;2022-10-17T06:28:12;14.57;;;9.30;;
71838;SDS011;59687;37.520;15.068;2022-10-17T06:30:40;13.80;;;8.68;;
71838;SDS011;59687;37.520;15.068;2022-10-17T06:33:07;11.68;;;8.52;;
71838;SDS011;59687;37.520;15.068;2022-10-17T06:35:35;16.70;;;9.60;;
71838;SDS011;59687;37.520;15.068;2022-10-17T06:38:02;15.02;;;9.15;;
71838;SDS011;59687;37.520;15.068;2022-10-17T06:40:31;14.88;;;9.63;;
71838;SDS011;59687;37.520;15.068;2022-10-17T06:42:58;12.20;;;8.15;;
71838;SDS011;59687;37.520;15.068;2022-10-17T06:45:53;14.48;;;9.25;;
71838;SDS011;59687;37.520;15.068;2022-10-17T06:48:37;13.47;;;9.00;;
71838;SDS011;59687;37.520;15.068;2022-10-17T06:51:11;14.20;;;8.93;;
71838;SDS011;59687;37.520;15.068;2022-10-17T06:53:47;14.70;;;8.48;;
71838;SDS011;59687;37.520;15.068;2022-10-17T06:56:43;12.73;;;8.40;;
71838;SDS011;59687;37.520;15.068;2022-10-17T06:59:29;15.15;;;11.40;;
71838;SDS011;59687;37.520;15.068;2022-10-17T07:02:21;15.47;;;10.10;;
71838;SDS011;59687;37.520;15.068;2022-10-17T07:04:51;12.13;;;8.90;;
71838;SDS011;59687;37.520;15.068;2022-10-17T07:07:20;12.60;;;8.38;;
71838;SDS011;59687;37.520;15.068;2022-10-17T07:09:49;11.82;;;8.70;;
71838;SDS011;59687;37.520;15.068;2022-10-17T07:12:19;13.18;;;8.95;;
71838;SDS011;59687;37.520;15.068;2022-10-17T07:14:45;11.53;;;8.40;;
71838;SDS011;59687;37.520;15.068;2022-10-17T07:17:14;14.88;;;9.80;;
71838;SDS011;59687;37.520;15.068;2022-10-17T07:19:43;14.20;;;9.98;;
71838;SDS011;59687;37.520;15.068;2022-10-17T07:22:11;13.07;;;8.70;;
71838;SDS011;59687;37.520;15.068;2022-10-17T07:24:43;11.82;;;8.68;;
71838;SDS011;59687;37.520;15.068;2022-10-17T07:27:16;14.07;;;8.90;;
71838;SDS011;59687;37.520;15.068;2022-10-17T07:29:43;12.98;;;9.88;;
71838;SDS011;59687;37.520;15.068;2022-10-17T07:32:17;13.32;;;8.88;;
71838;SDS011;59687;37.520;15.068;2022-10-17T07:34:44;12.65;;;9.30;;
71838;SDS011;59687;37.520;15.068;2022-10-17T07:37:11;10.65;;;7.90;;
71838;SDS011;59687;37.520;15.068;2022-10-17T07:39:44;11.00;;;8.80;;
71838;SDS011;59687;37.520;15.068;2022-10-17T07:42:11;10.90;;;7.43;;
71838;SDS011;59687;37.520;15.068;2022-10-17T07:44:40;12.43;;;9.02;;
71838;SDS011;59687;37.520;15.068;2022-10-17T07:47:08;12.10;;;9.10;;
71838;SDS011;59687;37.520;15.068;2022-10-17T07:49:36;13.00;;;9.15;;
71838;SDS011;59687;37.520;15.068;2022-10-17T07:52:09;11.83;;;8.77;;
71838;SDS011;59687;37.520;15.068;2022-10-17T07:54:37;12.70;;;8.35;;
71838;SDS011;59687;37.520;15.068;2022-10-17T07:57:04;11.63;;;8.32;;
71838;SDS011;59687;37.520;15.068;2022-10-17T07:59:32;14.70;;;9.63;;
71838;SDS011;59687;37.520;15.068;2022-10-17T08:02:00;13.18;;;8.88;;
71838;SDS011;59687;37.520;15.068;2022-10-17T08:04:27;12.97;;;9.40;;
71838;SDS011;59687;37.520;15.068;2022-10-17T08:06:54;13.02;;;9.13;;
71838;SDS011;59687;37.520;15.068;2022-10-17T08:09:21;12.15;;;8.55;;
71838;SDS011;59687;37.520;15.068;2022-10-17T08:11:48;13.30;;;9.32;;
71838;SDS011;59687;37.520;15.068;2022-10-17T08:14:16;11.80;;;8.93;;
71838;SDS011;59687;37.520;15.068;2022-10-17T08:16:43;13.07;;;9.03;;
71838;SDS011;59687;37.520;15.068;2022-10-17T08:19:11;17.02;;;12.00;;
71838;SDS011;59687;37.520;15.068;2022-10-17T08:21:38;16.60;;;12.25;;
71838;SDS011;59687;37.520;15.068;2022-10-17T08:24:07;18.30;;;12.70;;
71838;SDS011;59687;37.520;15.068;2022-10-17T08:26:34;16.75;;;11.88;;
71838;SDS011;59687;37.520;15.068;2022-10-17T08:29:03;17.80;;;13.07;;
71838;SDS011;59687;37.520;15.068;2022-10-17T08:31:30;13.57;;;10.07;;
71838;SDS011;59687;37.520;15.068;2022-10-17T08:33:57;15.27;;;10.30;;
71838;SDS011;59687;37.520;15.068;2022-10-17T08:36:24;15.40;;;11.20;;
71838;SDS011;59687;37.520;15.068;2022-10-17T08:38:50;13.25;;;9.60;;
71838;SDS011;59687;37.520;15.068;2022-10-17T08:47:00;13.32;;;9.38;;
71838;SDS011;59687;37.520;15.068;2022-10-17T08:49:37;12.52;;;8.07;;
71838;SDS011;59687;37.520;15.068;2022-10-17T08:52:19;13.48;;;9.35;;
71838;SDS011;59687;37.520;15.068;2022-10-17T08:54:55;13.27;;;9.40;;
71838;SDS011;59687;37.520;15.068;2022-10-17T08:57:22;14.57;;;9.40;;
71838;SDS011;59687;37.520;15.068;2022-10-17T08:59:50;14.32;;;9.10;;
71838;SDS011;59687;37.520;15.068;2022-10-17T09:05:28;10.85;;;8.10;;
71838;SDS011;59687;37.520;15.068;2022-10-17T09:10:35;12.48;;;8.65;;
71838;SDS011;59687;37.520;15.068;2022-10-17T09:18:32;13.18;;;9.27;;
71838;SDS011;59687;37.520;15.068;2022-10-17T09:21:20;14.23;;;9.33;;
71838;SDS011;59687;37.520;15.068;2022-10-17T09:24:03;13.45;;;9.13;;
71838;SDS011;59687;37.520;15.068;2022-10-17T09:26:40;12.52;;;8.85;;
71838;SDS011;59687;37.520;15.068;2022-10-17T09:29:21;13.82;;;9.75;;
71838;SDS011;59687;37.520;15.068;2022-10-17T09:31:53;13.18;;;9.68;;
71838;SDS011;59687;37.520;15.068;2022-10-17T09:34:28;12.03;;;8.80;;
71838;SDS011;59687;37.520;15.068;2022-10-17T09:36:59;11.32;;;8.95;;
71838;SDS011;59687;37.520;15.068;2022-10-17T09:39:28;13.48;;;8.80;;
71838;SDS011;59687;37.520;15.068;2022-10-17T09:41:59;12.68;;;9.57;;
71838;SDS011;59687;37.520;15.068;2022-10-17T09:44:34;12.68;;;9.30;;
71838;SDS011;59687;37.520;15.068;2022-10-17T09:49:37;12.35;;;9.57;;
71838;SDS011;59687;37.520;15.068;2022-10-17T09:52:09;13.82;;;9.52;;
71838;SDS011;59687;37.520;15.068;2022-10-17T09:54:44;11.15;;;8.65;;
71838;SDS011;59687;37.520;15.068;2022-10-17T09:57:14;13.25;;;9.00;;
71838;SDS011;59687;37.520;15.068;2022-10-17T10:00:04;14.50;;;8.63;;
71838;SDS011;59687;37.520;15.068;2022-10-17T10:02:41;12.35;;;8.63;;
71838;SDS011;59687;37.520;15.068;2022-10-17T10:05:16;12.18;;;8.30;;
71838;SDS011;59687;37.520;15.068;2022-10-17T10:08:19;11.25;;;8.35;;
71838;SDS011;59687;37.520;15.068;2022-10-17T10:10:43;11.68;;;8.05;;
71838;SDS011;59687;37.520;15.068;2022-10-17T10:15:49;11.50;;;8.27;;
71838;SDS011;59687;37.520;15.068;2022-10-17T10:18:34;10.90;;;7.25;;
71838;SDS011;59687;37.520;15.068;2022-10-17T10:23:33;10.40;;;7.72;;
71838;SDS011;59687;37.520;15.068;2022-10-17T10:26:17;9.83;;;7.50;;
71838;SDS011;59687;37.520;15.068;2022-10-17T10:28:56;10.35;;;7.32;;
71838;SDS011;59687;37.520;15.068;2022-10-17T10:31:34;11.30;;;7.97;;
71838;SDS011;59687;37.520;15.068;2022-10-17T10:34:12;10.07;;;7.15;;
71838;SDS011;59687;37.520;15.068;2022-10-17T10:37:02;9.30;;;6.75;;
71838;SDS011;59687;37.520;15.068;2022-10-17T10:42:19;9.90;;;7.07;;
71838;SDS011;59687;37.520;15.068;2022-10-17T10:44:52;9.68;;;6.97;;
71838;SDS011;59687;37.520;15.068;2022-10-17T10:47:22;9.02;;;6.60;;
71838;SDS011;59687;37.520;15.068;2022-10-17T10:55:49;9.68;;;6.97;;
71838;SDS011;59687;37.520;15.068;2022-10-17T10:58:24;9.52;;;7.00;;
71838;SDS011;59687;37.520;15.068;2022-10-17T11:00:56;10.98;;;7.28;;
71838;SDS011;59687;37.520;15.068;2022-10-17T11:03:40;8.85;;;6.60;;
71838;SDS011;59687;37.520;15.068;2022-10-17T11:06:20;10.40;;;7.43;;
71838;SDS011;59687;37.520;15.068;2022-10-17T11:08:56;10.35;;;7.03;;
71838;SDS011;59687;37.520;15.068;2022-10-17T11:11:57;9.90;;;7.10;;
71838;SDS011;59687;37.520;15.068;2022-10-17T11:14:31;9.50;;;7.20;;
71838;SDS011;59687;37.520;15.068;2022-10-17T11:20:31;10.53;;;7.17;;
71838;SDS011;59687;37.520;15.068;2022-10-17T11:22:45;10.70;;;7.25;;
71838;SDS011;59687;37.520;15.068;2022-10-17T11:28:16;11.65;;;7.20;;
71838;SDS011;59687;37.520;15.068;2022-10-17T11:33:59;10.03;;;7.20;;
71838;SDS011;59687;37.520;15.068;2022-10-17T11:36:30;9.77;;;7.07;;
71838;SDS011;59687;37.520;15.068;2022-10-17T11:39:02;11.02;;;7.70;;
71838;SDS011;59687;37.520;15.068;2022-10-17T11:41:41;11.10;;;7.28;;
71838;SDS011;59687;37.520;15.068;2022-10-17T11:44:20;10.07;;;7.40;;
71838;SDS011;59687;37.520;15.068;2022-10-17T11:46:56;9.80;;;7.07;;
71838;SDS011;59687;37.520;15.068;2022-10-17T11:49:29;11.27;;;7.88;;
71838;SDS011;59687;37.520;15.068;2022-10-17T11:54:36;11.50;;;6.95;;
71838;SDS011;59687;37.520;15.068;2022-10-17T12:02:35;9.77;;;7.40;;
71838;SDS011;59687;37.520;15.068;2022-10-17T12:05:16;10.55;;;6.80;;
71838;SDS011;59687;37.520;15.068;2022-10-17T12:10:42;9.55;;;7.15;;
71838;SDS011;59687;37.520;15.068;2022-10-17T12:15:57;12.75;;;7.35;;
71838;SDS011;59687;37.520;15.068;2022-10-17T12:21:52;10.27;;;6.70;;
71838;SDS011;59687;37.520;15.068;2022-10-17T12:29:59;11.15;;;7.63;;
71838;SDS011;59687;37.520;15.068;2022-10-17T12:35:34;10.70;;;7.95;;
71838;SDS011;59687;37.520;15.068;2022-10-17T12:45:52;13.40;;;8.07;;
71838;SDS011;59687;37.520;15.068;2022-10-17T12:51:06;11.68;;;8.18;;
71838;SDS011;59687;37.520;15.068;2022-10-17T12:53:59;9.70;;;6.37;;
71838;SDS011;59687;37.520;15.068;2022-10-17T12:56:41;12.10;;;7.50;;
71838;SDS011;59687;37.520;15.068;2022-10-17T12:59:13;12.65;;;8.07;;
71838;SDS011;59687;37.520;15.068;2022-10-17T13:01:42;11.13;;;7.88;;
71838;SDS011;59687;37.520;15.068;2022-10-17T13:04:13;12.98;;;7.55;;
71838;SDS011;59687;37.520;15.068;2022-10-17T13:06:45;11.53;;;7.47;;
71838;SDS011;59687;37.520;15.068;2022-10-17T13:09:19;11.68;;;7.30;;
71838;SDS011;59687;37.520;15.068;2022-10-17T13:11:51;11.20;;;7.30;;
71838;SDS011;59687;37.520;15.068;2022-10-17T13:14:20;11.15;;;7.15;;
71838;SDS011;59687;37.520;15.068;2022-10-17T13:19:49;10.93;;;7.10;;
71838;SDS011;59687;37.520;15.068;2022-10-17T13:22:20;9.52;;;6.85;;
71838;SDS011;59687;37.520;15.068;2022-10-17T13:24:50;9.70;;;6.53;;
71838;SDS011;59687;37.520;15.068;2022-10-17T13:30:01;9.90;;;7.00;;
71838;SDS011;59687;37.520;15.068;2022-10-17T13:32:46;10.70;;;7.03;;
71838;SDS011;59687;37.520;15.068;2022-10-17T13:35:15;10.15;;;7.20;;
71838;SDS011;59687;37.520;15.068;2022-10-17T13:37:50;9.98;;;7.10;;
71838;SDS011;59687;37.520;15.068;2022-10-17T13:40:20;11.15;;;6.95;;
71838;SDS011;59687;37.520;15.068;2022-10-17T13:43:10;9.77;;;6.22;;
71838;SDS011;59687;37.520;15.068;2022-10-17T13:45:48;10.93;;;6.90;;
71838;SDS011;59687;37.520;15.068;2022-10-17T13:48:18;12.10;;;6.50;;
71838;SDS011;59687;37.520;15.068;2022-10-17T13:50:49;9.77;;;6.43;;
71838;SDS011;59687;37.520;15.068;2022-10-17T13:53:23;10.68;;;7.40;;
71838;SDS011;59687;37.520;15.068;2022-10-17T13:56:02;9.10;;;6.43;;
71838;SDS011;59687;37.520;15.068;2022-10-17T13:58:53;11.93;;;6.90;;
71838;SDS011;59687;37.520;15.068;2022-10-17T14:01:25;10.52;;;7.18;;
71838;SDS011;59687;37.520;15.068;2022-10-17T14:03:54;10.98;;;6.82;;
71838;SDS011;59687;37.520;15.068;2022-10-17T14:06:32;10.18;;;6.72;;
71838;SDS011;59687;37.520;15.068;2022-10-17T14:09:03;9.68;;;6.10;;
71838;SDS011;59687;37.520;15.068;2022-10-17T14:11:39;11.33;;;7.17;;
71838;SDS011;59687;37.520;15.068;2022-10-17T14:14:19;9.80;;;6.45;;
71838;SDS011;59687;37.520;15.068;2022-10-17T14:16:50;10.45;;;6.35;;
71838;SDS011;59687;37.520;15.068;2022-10-17T14:24:49;10.33;;;6.87;;
71838;SDS011;59687;37.520;15.068;2022-10-17T14:27:50;9.27;;;6.22;;
71838;SDS011;59687;37.520;15.068;2022-10-17T14:33:11;10.50;;;6.75;;
71838;SDS011;59687;37.520;15.068;2022-10-17T14:35:53;10.25;;;7.05;;
71838;SDS011;59687;37.520;15.068;2022-10-17T14:38:22;12.07;;;7.43;;
71838;SDS011;59687;37.520;15.068;2022-10-17T14:44:02;11.30;;;7.20;;
71838;SDS011;59687;37.520;15.068;2022-10-17T14:46:33;10.88;;;7.20;;
71838;SDS011;59687;37.520;15.068;2022-10-17T14:49:04;10.80;;;6.82;;
71838;SDS011;59687;37.520;15.068;2022-10-17T14:51:33;9.10;;;5.93;;
71838;SDS011;59687;37.520;15.068;2022-10-17T14:54:19;9.60;;;6.07;;
71838;SDS011;59687;37.520;15.068;2022-10-17T14:56:50;10.95;;;6.80;;
71838;SDS011;59687;37.520;15.068;2022-10-17T14:59:18;9.10;;;6.05;;
71838;SDS011;59687;37.520;15.068;2022-10-17T15:02:01;10.48;;;6.05;;
71838;SDS011;59687;37.520;15.068;2022-10-17T15:04:28;10.90;;;6.80;;
71838;SDS011;59687;37.520;15.068;2022-10-17T15:06:55;11.20;;;6.60;;
71838;SDS011;59687;37.520;15.068;2022-10-17T15:09:24;9.52;;;6.63;;
71838;SDS011;59687;37.520;15.068;2022-10-17T15:11:54;13.13;;;10.90;;
71838;SDS011;59687;37.520;15.068;2022-10-17T15:14:22;11.63;;;6.68;;
71838;SDS011;59687;37.520;15.068;2022-10-17T15:16:49;11.43;;;7.10;;
71838;SDS011;59687;37.520;15.068;2022-10-17T15:19:16;11.50;;;6.85;;
71838;SDS011;59687;37.520;15.068;2022-10-17T15:21:46;11.13;;;6.60;;
71838;SDS011;59687;37.520;15.068;2022-10-17T15:24:13;10.10;;;6.53;;
71838;SDS011;59687;37.520;15.068;2022-10-17T15:26:41;12.02;;;7.20;;
71838;SDS011;59687;37.520;15.068;2022-10-17T15:29:09;11.50;;;7.43;;
71838;SDS011;59687;37.520;15.068;2022-10-17T15:31:41;10.60;;;6.75;;
71838;SDS011;59687;37.520;15.068;2022-10-17T15:34:08;12.27;;;7.00;;
71838;SDS011;59687;37.520;15.068;2022-10-17T15:36:39;12.57;;;7.25;;
71838;SDS011;59687;37.520;15.068;2022-10-17T15:39:19;10.30;;;6.90;;
71838;SDS011;59687;37.520;15.068;2022-10-17T15:41:49;12.00;;;7.07;;
71838;SDS011;59687;37.520;15.068;2022-10-17T15:44:18;11.48;;;7.10;;
71838;SDS011;59687;37.520;15.068;2022-10-17T15:46:45;11.65;;;7.13;;
71838;SDS011;59687;37.520;15.068;2022-10-17T15:49:13;14.32;;;7.82;;
71838;SDS011;59687;37.520;15.068;2022-10-17T15:51:42;13.00;;;7.30;;
71838;SDS011;59687;37.520;15.068;2022-10-17T15:54:09;12.23;;;8.17;;
71838;SDS011;59687;37.520;15.068;2022-10-17T15:56:42;12.27;;;7.28;;
71838;SDS011;59687;37.520;15.068;2022-10-17T15:59:17;13.68;;;8.30;;
71838;SDS011;59687;37.520;15.068;2022-10-17T16:01:48;13.65;;;7.93;;
71838;SDS011;59687;37.520;15.068;2022-10-17T16:04:15;13.50;;;8.18;;
71838;SDS011;59687;37.520;15.068;2022-10-17T16:06:43;13.83;;;8.80;;
71838;SDS011;59687;37.520;15.068;2022-10-17T16:09:11;13.70;;;8.45;;
71838;SDS011;59687;37.520;15.068;2022-10-17T16:11:38;13.20;;;8.38;;
71838;SDS011;59687;37.520;15.068;2022-10-17T16:14:14;14.45;;;9.02;;
71838;SDS011;59687;37.520;15.068;2022-10-17T16:16:42;14.05;;;8.27;;
71838;SDS011;59687;37.520;15.068;2022-10-17T16:19:11;15.50;;;8.90;;
71838;SDS011;59687;37.520;15.068;2022-10-17T16:21:39;11.90;;;7.80;;
71838;SDS011;59687;37.520;15.068;2022-10-17T16:24:10;14.68;;;8.00;;
71838;SDS011;59687;37.520;15.068;2022-10-17T16:26:38;14.13;;;8.15;;
71838;SDS011;59687;37.520;15.068;2022-10-17T16:29:05;15.70;;;9.40;;
71838;SDS011;59687;37.520;15.068;2022-10-17T16:33:52;15.77;;;9.53;;
71838;SDS011;59687;37.520;15.068;2022-10-17T16:36:20;14.98;;;8.93;;
71838;SDS011;59687;37.520;15.068;2022-10-17T16:38:48;14.60;;;8.65;;
71838;SDS011;59687;37.520;15.068;2022-10-17T16:43:50;16.80;;;9.32;;
71838;SDS011;59687;37.520;15.068;2022-10-17T16:46:18;14.03;;;8.93;;
71838;SDS011;59687;37.520;15.068;2022-10-17T16:48:45;18.27;;;9.60;;
71838;SDS011;59687;37.520;15.068;2022-10-17T16:51:14;14.52;;;9.50;;
71838;SDS011;59687;37.520;15.068;2022-10-17T16:53:45;16.95;;;10.07;;
71838;SDS011;59687;37.520;15.068;2022-10-17T16:56:14;14.88;;;8.68;;
71838;SDS011;59687;37.520;15.068;2022-10-17T16:58:43;16.90;;;9.90;;
71838;SDS011;59687;37.520;15.068;2022-10-17T17:01:12;14.48;;;9.23;;
71838;SDS011;59687;37.520;15.068;2022-10-17T17:03:43;18.02;;;10.48;;
71838;SDS011;59687;37.520;15.068;2022-10-17T17:06:12;16.98;;;10.50;;
71838;SDS011;59687;37.520;15.068;2022-10-17T17:08:40;18.67;;;12.68;;